sensor_id;sensor_type;location;lat;lon;timestamp;temperature;humidity
30097;DHT22;16915;51.466;3.610;2023-02-28T00:02:20;1.30;99.90
30097;DHT22;16915;51.466;3.610;2023-02-28T00:04:45;1.30;99.90
30097;DHT22;16915;51.466;3.610;2023-02-28T00:07:18;1.30;99.90
30097;DHT22;16915;51.466;3.610;2023-02-28T00:09:44;1.40;99.90
30097;DHT22;16915;51.466;3.610;2023-02-28T00:12:09;1.30;99.90
30097;DHT22;16915;51.466;3.610;2023-02-28T00:14:36;1.30;99.90
30097;DHT22;16915;51.466;3.610;2023-02-28T00:17:02;1.30;99.90
30097;DHT22;16915;51.466;3.610;2023-02-28T00:19:27;1.20;99.90
30097;DHT22;16915;51.466;3.610;2023-02-28T00:21:53;1.20;99.90
30097;DHT22;16915;51.466;3.610;2023-02-28T00:24:18;1.10;99.90
30097;DHT22;16915;51.466;3.610;2023-02-28T00:26:44;1.10;99.90
30097;DHT22;16915;51.466;3.610;2023-02-28T00:29:09;1.10;99.90
30097;DHT22;16915;51.466;3.610;2023-02-28T00:31:35;1.00;99.90
30097;DHT22;16915;51.466;3.610;2023-02-28T00:34:01;1.00;99.90
30097;DHT22;16915;51.466;3.610;2023-02-28T00:36:26;1.00;99.90
30097;DHT22;16915;51.466;3.610;2023-02-28T00:38:52;1.00;99.90
30097;DHT22;16915;51.466;3.610;2023-02-28T00:41:18;1.00;99.90
30097;DHT22;16915;51.466;3.610;2023-02-28T00:43:43;1.00;99.90
30097;DHT22;16915;51.466;3.610;2023-02-28T00:46:09;1.00;99.90
30097;DHT22;16915;51.466;3.610;2023-02-28T00:48:35;1.00;99.90
30097;DHT22;16915;51.466;3.610;2023-02-28T00:51:01;1.00;99.90
30097;DHT22;16915;51.466;3.610;2023-02-28T00:53:27;1.00;99.90
30097;DHT22;16915;51.466;3.610;2023-02-28T00:55:53;1.00;99.90
30097;DHT22;16915;51.466;3.610;2023-02-28T00:58:19;0.90;99.90
30097;DHT22;16915;51.466;3.610;2023-02-28T01:00:45;0.90;99.90
30097;DHT22;16915;51.466;3.610;2023-02-28T01:03:17;0.80;99.90
30097;DHT22;16915;51.466;3.610;2023-02-28T01:05:43;0.70;99.90
30097;DHT22;16915;51.466;3.610;2023-02-28T01:08:09;0.70;99.90
30097;DHT22;16915;51.466;3.610;2023-02-28T01:10:34;0.60;99.90
30097;DHT22;16915;51.466;3.610;2023-02-28T01:13:02;0.50;99.90
30097;DHT22;16915;51.466;3.610;2023-02-28T01:15:28;0.40;99.90
30097;DHT22;16915;51.466;3.610;2023-02-28T01:17:53;0.40;99.90
30097;DHT22;16915;51.466;3.610;2023-02-28T01:20:19;0.40;99.90
30097;DHT22;16915;51.466;3.610;2023-02-28T01:22:45;0.40;99.90
30097;DHT22;16915;51.466;3.610;2023-02-28T01:25:10;0.40;99.90
30097;DHT22;16915;51.466;3.610;2023-02-28T01:27:36;0.40;99.90
30097;DHT22;16915;51.466;3.610;2023-02-28T01:30:02;0.40;99.90
30097;DHT22;16915;51.466;3.610;2023-02-28T01:32:28;0.30;99.90
30097;DHT22;16915;51.466;3.610;2023-02-28T01:34:54;0.30;99.90
30097;DHT22;16915;51.466;3.610;2023-02-28T01:37:19;0.30;99.90
30097;DHT22;16915;51.466;3.610;2023-02-28T01:39:45;0.20;99.90
30097;DHT22;16915;51.466;3.610;2023-02-28T01:42:11;0.20;99.90
30097;DHT22;16915;51.466;3.610;2023-02-28T01:47:21;0.20;99.90
30097;DHT22;16915;51.466;3.610;2023-02-28T01:49:48;0.30;99.90
30097;DHT22;16915;51.466;3.610;2023-02-28T01:52:14;0.40;99.90
30097;DHT22;16915;51.466;3.610;2023-02-28T01:55:02;0.50;99.90
30097;DHT22;16915;51.466;3.610;2023-02-28T01:57:34;0.50;99.90
30097;DHT22;16915;51.466;3.610;2023-02-28T02:00:14;0.60;99.90
30097;DHT22;16915;51.466;3.610;2023-02-28T02:02:47;0.70;99.90
30097;DHT22;16915;51.466;3.610;2023-02-28T02:05:14;0.70;99.90
30097;DHT22;16915;51.466;3.610;2023-02-28T02:07:43;0.80;99.90
30097;DHT22;16915;51.466;3.610;2023-02-28T02:10:15;0.90;99.90
30097;DHT22;16915;51.466;3.610;2023-02-28T02:15:45;1.10;99.90
30097;DHT22;16915;51.466;3.610;2023-02-28T02:21:10;1.30;99.90
30097;DHT22;16915;51.466;3.610;2023-02-28T02:24:11;1.40;99.90
30097;DHT22;16915;51.466;3.610;2023-02-28T02:35:30;1.70;99.90
30097;DHT22;16915;51.466;3.610;2023-02-28T02:38:08;1.70;99.90
30097;DHT22;16915;51.466;3.610;2023-02-28T02:43:15;1.80;99.90
30097;DHT22;16915;51.466;3.610;2023-02-28T02:45:48;1.90;99.90
30097;DHT22;16915;51.466;3.610;2023-02-28T02:48:18;1.90;99.90
30097;DHT22;16915;51.466;3.610;2023-02-28T02:51:07;2.00;99.90
30097;DHT22;16915;51.466;3.610;2023-02-28T02:53:51;2.00;99.90
30097;DHT22;16915;51.466;3.610;2023-02-28T02:56:19;2.00;99.90
30097;DHT22;16915;51.466;3.610;2023-02-28T02:58:48;2.00;99.90
30097;DHT22;16915;51.466;3.610;2023-02-28T03:01:21;2.10;99.90
30097;DHT22;16915;51.466;3.610;2023-02-28T03:03:57;2.20;99.90
30097;DHT22;16915;51.466;3.610;2023-02-28T03:06:24;2.20;99.90
30097;DHT22;16915;51.466;3.610;2023-02-28T03:08:50;2.20;99.90
30097;DHT22;16915;51.466;3.610;2023-02-28T03:11:16;2.30;99.90
30097;DHT22;16915;51.466;3.610;2023-02-28T03:14:24;2.30;99.90
30097;DHT22;16915;51.466;3.610;2023-02-28T03:22:59;2.40;99.90
30097;DHT22;16915;51.466;3.610;2023-02-28T03:26:00;2.40;99.90
30097;DHT22;16915;51.466;3.610;2023-02-28T03:29:24;2.40;99.90
30097;DHT22;16915;51.466;3.610;2023-02-28T03:31:34;2.40;99.90
30097;DHT22;16915;51.466;3.610;2023-02-28T03:34:11;2.40;99.90
30097;DHT22;16915;51.466;3.610;2023-02-28T03:36:41;2.50;99.90
30097;DHT22;16915;51.466;3.610;2023-02-28T03:39:16;2.50;99.90
30097;DHT22;16915;51.466;3.610;2023-02-28T03:41:46;2.50;99.90
30097;DHT22;16915;51.466;3.610;2023-02-28T03:44:39;2.60;99.90
30097;DHT22;16915;51.466;3.610;2023-02-28T03:47:22;2.50;99.90
30097;DHT22;16915;51.466;3.610;2023-02-28T03:50:18;2.60;99.90
30097;DHT22;16915;51.466;3.610;2023-02-28T03:52:50;2.60;99.90
30097;DHT22;16915;51.466;3.610;2023-02-28T03:55:18;2.70;99.90
30097;DHT22;16915;51.466;3.610;2023-02-28T03:57:58;2.60;99.90
30097;DHT22;16915;51.466;3.610;2023-02-28T04:00:34;2.70;99.90
30097;DHT22;16915;51.466;3.610;2023-02-28T04:03:01;2.70;99.90
30097;DHT22;16915;51.466;3.610;2023-02-28T04:05:27;2.70;99.90
30097;DHT22;16915;51.466;3.610;2023-02-28T04:07:53;2.70;99.90
30097;DHT22;16915;51.466;3.610;2023-02-28T04:10:19;2.70;99.90
30097;DHT22;16915;51.466;3.610;2023-02-28T04:12:45;2.70;99.90
30097;DHT22;16915;51.466;3.610;2023-02-28T04:15:10;2.70;99.90
30097;DHT22;16915;51.466;3.610;2023-02-28T04:17:36;2.80;99.90
30097;DHT22;16915;51.466;3.610;2023-02-28T04:20:03;2.80;99.90
30097;DHT22;16915;51.466;3.610;2023-02-28T04:22:34;2.80;99.90
30097;DHT22;16915;51.466;3.610;2023-02-28T04:24:59;2.80;99.90
30097;DHT22;16915;51.466;3.610;2023-02-28T04:27:25;2.80;99.90
30097;DHT22;16915;51.466;3.610;2023-02-28T04:29:50;2.80;99.90
30097;DHT22;16915;51.466;3.610;2023-02-28T04:32:16;2.90;99.90
30097;DHT22;16915;51.466;3.610;2023-02-28T04:34:42;2.80;99.90
30097;DHT22;16915;51.466;3.610;2023-02-28T04:37:07;2.90;99.90
30097;DHT22;16915;51.466;3.610;2023-02-28T04:39:36;2.90;99.90
30097;DHT22;16915;51.466;3.610;2023-02-28T04:42:02;2.90;99.90
30097;DHT22;16915;51.466;3.610;2023-02-28T04:44:28;2.90;99.90
30097;DHT22;16915;51.466;3.610;2023-02-28T04:46:53;2.90;99.90
30097;DHT22;16915;51.466;3.610;2023-02-28T04:49:19;2.80;99.90
30097;DHT22;16915;51.466;3.610;2023-02-28T04:51:44;2.80;99.90
30097;DHT22;16915;51.466;3.610;2023-02-28T04:54:10;2.80;99.90
30097;DHT22;16915;51.466;3.610;2023-02-28T04:56:36;2.80;99.90
30097;DHT22;16915;51.466;3.610;2023-02-28T04:59:01;2.80;99.90
30097;DHT22;16915;51.466;3.610;2023-02-28T05:01:29;2.70;99.90
30097;DHT22;16915;51.466;3.610;2023-02-28T05:03:56;2.80;99.90
30097;DHT22;16915;51.466;3.610;2023-02-28T05:06:26;2.80;99.90
30097;DHT22;16915;51.466;3.610;2023-02-28T05:08:53;2.80;99.90
30097;DHT22;16915;51.466;3.610;2023-02-28T05:11:24;2.70;99.90
30097;DHT22;16915;51.466;3.610;2023-02-28T05:13:51;2.70;99.90
30097;DHT22;16915;51.466;3.610;2023-02-28T05:16:18;2.70;99.90
30097;DHT22;16915;51.466;3.610;2023-02-28T05:18:44;2.70;99.90
30097;DHT22;16915;51.466;3.610;2023-02-28T05:21:23;2.70;99.90
30097;DHT22;16915;51.466;3.610;2023-02-28T05:23:49;2.70;99.90
30097;DHT22;16915;51.466;3.610;2023-02-28T05:26:15;2.70;99.90
30097;DHT22;16915;51.466;3.610;2023-02-28T05:28:40;2.80;99.90
30097;DHT22;16915;51.466;3.610;2023-02-28T05:31:07;2.80;99.90
30097;DHT22;16915;51.466;3.610;2023-02-28T05:33:33;2.90;99.90
30097;DHT22;16915;51.466;3.610;2023-02-28T05:35:58;2.90;99.90
30097;DHT22;16915;51.466;3.610;2023-02-28T05:38:24;2.90;99.90
30097;DHT22;16915;51.466;3.610;2023-02-28T05:40:49;2.90;99.90
30097;DHT22;16915;51.466;3.610;2023-02-28T05:43:15;2.90;99.90
30097;DHT22;16915;51.466;3.610;2023-02-28T05:45:40;2.90;99.90
30097;DHT22;16915;51.466;3.610;2023-02-28T05:48:06;3.00;99.90
30097;DHT22;16915;51.466;3.610;2023-02-28T05:50:31;3.00;99.90
30097;DHT22;16915;51.466;3.610;2023-02-28T05:52:57;3.00;99.90
30097;DHT22;16915;51.466;3.610;2023-02-28T05:55:22;3.00;99.90
30097;DHT22;16915;51.466;3.610;2023-02-28T05:57:48;3.00;99.90
30097;DHT22;16915;51.466;3.610;2023-02-28T06:00:14;3.00;99.90
30097;DHT22;16915;51.466;3.610;2023-02-28T06:02:41;3.10;99.90
30097;DHT22;16915;51.466;3.610;2023-02-28T06:05:15;3.10;99.90
30097;DHT22;16915;51.466;3.610;2023-02-28T06:07:41;3.10;99.90
30097;DHT22;16915;51.466;3.610;2023-02-28T06:10:08;3.10;99.90
30097;DHT22;16915;51.466;3.610;2023-02-28T06:12:34;3.20;99.90
30097;DHT22;16915;51.466;3.610;2023-02-28T06:14:59;3.20;99.90
30097;DHT22;16915;51.466;3.610;2023-02-28T06:17:25;3.20;99.90
30097;DHT22;16915;51.466;3.610;2023-02-28T06:19:50;3.20;99.90
30097;DHT22;16915;51.466;3.610;2023-02-28T06:22:16;3.20;99.90
30097;DHT22;16915;51.466;3.610;2023-02-28T06:24:41;3.20;99.90
30097;DHT22;16915;51.466;3.610;2023-02-28T06:27:07;3.20;99.90
30097;DHT22;16915;51.466;3.610;2023-02-28T06:29:34;3.20;99.90
30097;DHT22;16915;51.466;3.610;2023-02-28T06:32:00;3.20;99.90
30097;DHT22;16915;51.466;3.610;2023-02-28T06:34:25;3.30;99.90
30097;DHT22;16915;51.466;3.610;2023-02-28T06:36:51;3.30;99.90
30097;DHT22;16915;51.466;3.610;2023-02-28T06:39:17;3.30;99.90
30097;DHT22;16915;51.466;3.610;2023-02-28T06:41:43;3.20;99.90
30097;DHT22;16915;51.466;3.610;2023-02-28T06:44:17;3.20;99.90
30097;DHT22;16915;51.466;3.610;2023-02-28T06:46:44;3.20;99.90
30097;DHT22;16915;51.466;3.610;2023-02-28T06:49:11;3.20;99.90
30097;DHT22;16915;51.466;3.610;2023-02-28T06:51:40;3.10;99.90
30097;DHT22;16915;51.466;3.610;2023-02-28T06:54:07;3.20;99.90
30097;DHT22;16915;51.466;3.610;2023-02-28T06:56:35;3.20;99.90
30097;DHT22;16915;51.466;3.610;2023-02-28T06:59:01;3.20;99.90
30097;DHT22;16915;51.466;3.610;2023-02-28T07:01:27;3.20;99.90
30097;DHT22;16915;51.466;3.610;2023-02-28T07:03:54;3.20;99.90
30097;DHT22;16915;51.466;3.610;2023-02-28T07:06:21;3.20;99.90
30097;DHT22;16915;51.466;3.610;2023-02-28T07:08:48;3.20;99.90
30097;DHT22;16915;51.466;3.610;2023-02-28T07:11:15;3.20;99.90
30097;DHT22;16915;51.466;3.610;2023-02-28T07:13:41;3.10;99.90
30097;DHT22;16915;51.466;3.610;2023-02-28T07:16:10;3.10;99.90
30097;DHT22;16915;51.466;3.610;2023-02-28T07:18:36;3.10;99.90
30097;DHT22;16915;51.466;3.610;2023-02-28T07:21:03;3.00;99.90
30097;DHT22;16915;51.466;3.610;2023-02-28T07:23:29;3.00;99.90
30097;DHT22;16915;51.466;3.610;2023-02-28T07:25:55;3.00;99.90
30097;DHT22;16915;51.466;3.610;2023-02-28T07:28:20;2.90;99.90
30097;DHT22;16915;51.466;3.610;2023-02-28T07:30:46;2.90;99.90
30097;DHT22;16915;51.466;3.610;2023-02-28T07:33:13;2.90;99.90
30097;DHT22;16915;51.466;3.610;2023-02-28T07:35:38;2.90;99.90
30097;DHT22;16915;51.466;3.610;2023-02-28T07:38:04;2.90;99.90
30097;DHT22;16915;51.466;3.610;2023-02-28T07:40:30;2.90;99.90
30097;DHT22;16915;51.466;3.610;2023-02-28T07:42:55;2.90;99.90
30097;DHT22;16915;51.466;3.610;2023-02-28T07:45:21;2.80;99.90
30097;DHT22;16915;51.466;3.610;2023-02-28T07:47:47;2.80;99.90
30097;DHT22;16915;51.466;3.610;2023-02-28T07:50:14;2.80;99.90
30097;DHT22;16915;51.466;3.610;2023-02-28T07:52:40;2.80;99.90
30097;DHT22;16915;51.466;3.610;2023-02-28T07:55:07;2.80;99.90
30097;DHT22;16915;51.466;3.610;2023-02-28T07:57:33;2.80;99.90
30097;DHT22;16915;51.466;3.610;2023-02-28T07:59:59;2.70;99.90
30097;DHT22;16915;51.466;3.610;2023-02-28T08:02:25;2.70;99.90
30097;DHT22;16915;51.466;3.610;2023-02-28T08:04:50;2.70;99.90
30097;DHT22;16915;51.466;3.610;2023-02-28T08:07:17;2.70;99.90
30097;DHT22;16915;51.466;3.610;2023-02-28T08:09:43;2.60;99.90
30097;DHT22;16915;51.466;3.610;2023-02-28T08:12:10;2.60;99.90
30097;DHT22;16915;51.466;3.610;2023-02-28T08:14:36;2.50;99.90
30097;DHT22;16915;51.466;3.610;2023-02-28T08:17:02;2.50;99.90
30097;DHT22;16915;51.466;3.610;2023-02-28T08:19:28;2.40;99.90
30097;DHT22;16915;51.466;3.610;2023-02-28T08:21:54;2.40;99.90
30097;DHT22;16915;51.466;3.610;2023-02-28T08:24:20;2.40;99.90
30097;DHT22;16915;51.466;3.610;2023-02-28T08:26:46;2.40;99.90
30097;DHT22;16915;51.466;3.610;2023-02-28T08:29:11;2.30;99.90
30097;DHT22;16915;51.466;3.610;2023-02-28T08:31:37;2.30;99.90
30097;DHT22;16915;51.466;3.610;2023-02-28T08:34:07;2.30;99.90
30097;DHT22;16915;51.466;3.610;2023-02-28T08:36:34;2.20;99.90
30097;DHT22;16915;51.466;3.610;2023-02-28T08:38:59;2.20;99.90
30097;DHT22;16915;51.466;3.610;2023-02-28T08:41:25;2.10;99.90
30097;DHT22;16915;51.466;3.610;2023-02-28T08:43:51;2.10;99.90
30097;DHT22;16915;51.466;3.610;2023-02-28T08:46:17;2.00;99.90
30097;DHT22;16915;51.466;3.610;2023-02-28T08:48:43;2.00;99.90
30097;DHT22;16915;51.466;3.610;2023-02-28T08:51:14;2.00;99.90
30097;DHT22;16915;51.466;3.610;2023-02-28T08:53:44;2.00;99.90
30097;DHT22;16915;51.466;3.610;2023-02-28T08:56:12;1.90;99.90
30097;DHT22;16915;51.466;3.610;2023-02-28T08:58:38;2.00;99.90
30097;DHT22;16915;51.466;3.610;2023-02-28T09:01:15;2.00;99.90
30097;DHT22;16915;51.466;3.610;2023-02-28T09:03:42;1.90;99.90
30097;DHT22;16915;51.466;3.610;2023-02-28T09:06:09;1.90;99.90
30097;DHT22;16915;51.466;3.610;2023-02-28T09:08:35;1.90;99.90
30097;DHT22;16915;51.466;3.610;2023-02-28T09:11:00;1.80;99.90
30097;DHT22;16915;51.466;3.610;2023-02-28T09:13:27;1.80;99.90
30097;DHT22;16915;51.466;3.610;2023-02-28T09:15:53;1.80;99.90
30097;DHT22;16915;51.466;3.610;2023-02-28T09:18:20;1.80;99.90
30097;DHT22;16915;51.466;3.610;2023-02-28T09:20:46;1.80;99.90
30097;DHT22;16915;51.466;3.610;2023-02-28T09:23:12;1.80;99.90
30097;DHT22;16915;51.466;3.610;2023-02-28T09:25:48;1.80;99.90
30097;DHT22;16915;51.466;3.610;2023-02-28T09:28:13;1.90;99.90
30097;DHT22;16915;51.466;3.610;2023-02-28T09:30:41;1.90;99.90
30097;DHT22;16915;51.466;3.610;2023-02-28T09:33:07;1.90;99.90
30097;DHT22;16915;51.466;3.610;2023-02-28T09:35:32;1.90;99.90
30097;DHT22;16915;51.466;3.610;2023-02-28T09:37:58;1.90;99.90
30097;DHT22;16915;51.466;3.610;2023-02-28T09:40:24;2.00;99.90
30097;DHT22;16915;51.466;3.610;2023-02-28T09:42:53;1.90;99.90
30097;DHT22;16915;51.466;3.610;2023-02-28T09:45:24;2.00;99.90
30097;DHT22;16915;51.466;3.610;2023-02-28T09:47:52;2.00;99.90
30097;DHT22;16915;51.466;3.610;2023-02-28T09:52:55;2.10;99.90
30097;DHT22;16915;51.466;3.610;2023-02-28T09:55:33;2.10;99.90
30097;DHT22;16915;51.466;3.610;2023-02-28T09:58:02;2.10;99.90
30097;DHT22;16915;51.466;3.610;2023-02-28T10:00:33;2.20;99.90
30097;DHT22;16915;51.466;3.610;2023-02-28T10:03:22;2.20;99.90
30097;DHT22;16915;51.466;3.610;2023-02-28T10:08:45;2.20;99.90
30097;DHT22;16915;51.466;3.610;2023-02-28T10:11:16;2.30;99.90
30097;DHT22;16915;51.466;3.610;2023-02-28T10:14:05;2.30;99.90
30097;DHT22;16915;51.466;3.610;2023-02-28T10:16:39;2.40;99.90
30097;DHT22;16915;51.466;3.610;2023-02-28T10:19:14;2.50;99.90
30097;DHT22;16915;51.466;3.610;2023-02-28T10:22:14;2.50;99.90
30097;DHT22;16915;51.466;3.610;2023-02-28T10:24:44;2.50;99.90
30097;DHT22;16915;51.466;3.610;2023-02-28T10:27:23;2.60;99.90
30097;DHT22;16915;51.466;3.610;2023-02-28T10:29:50;2.70;99.90
30097;DHT22;16915;51.466;3.610;2023-02-28T10:32:25;2.80;99.90
30097;DHT22;16915;51.466;3.610;2023-02-28T10:35:19;2.90;99.90
30097;DHT22;16915;51.466;3.610;2023-02-28T10:37:46;3.00;99.90
30097;DHT22;16915;51.466;3.610;2023-02-28T10:43:05;3.20;99.90
30097;DHT22;16915;51.466;3.610;2023-02-28T10:45:34;3.30;99.90
30097;DHT22;16915;51.466;3.610;2023-02-28T10:48:26;3.40;99.90
30097;DHT22;16915;51.466;3.610;2023-02-28T10:50:54;3.40;99.90
30097;DHT22;16915;51.466;3.610;2023-02-28T10:56:16;3.40;99.90
30097;DHT22;16915;51.466;3.610;2023-02-28T10:59:01;3.50;99.90
30097;DHT22;16915;51.466;3.610;2023-02-28T11:03:56;3.50;99.90
30097;DHT22;16915;51.466;3.610;2023-02-28T11:06:26;3.60;99.90
30097;DHT22;16915;51.466;3.610;2023-02-28T11:08:56;3.80;99.90
30097;DHT22;16915;51.466;3.610;2023-02-28T11:11:26;3.90;99.90
30097;DHT22;16915;51.466;3.610;2023-02-28T11:13:56;3.90;99.90
30097;DHT22;16915;51.466;3.610;2023-02-28T11:16:34;4.00;99.90
30097;DHT22;16915;51.466;3.610;2023-02-28T11:19:00;4.10;99.90
30097;DHT22;16915;51.466;3.610;2023-02-28T11:21:30;4.10;99.90
30097;DHT22;16915;51.466;3.610;2023-02-28T11:24:02;4.30;99.90
30097;DHT22;16915;51.466;3.610;2023-02-28T11:26:49;4.30;99.90
30097;DHT22;16915;51.466;3.610;2023-02-28T11:29:19;4.30;99.90
30097;DHT22;16915;51.466;3.610;2023-02-28T11:34:27;4.60;99.90
30097;DHT22;16915;51.466;3.610;2023-02-28T11:36:55;4.90;99.90
30097;DHT22;16915;51.466;3.610;2023-02-28T11:39:23;5.50;99.90
30097;DHT22;16915;51.466;3.610;2023-02-28T11:52:55;7.20;99.90
30097;DHT22;16915;51.466;3.610;2023-02-28T11:55:39;7.30;99.90
30097;DHT22;16915;51.466;3.610;2023-02-28T12:01:01;8.30;99.90
30097;DHT22;16915;51.466;3.610;2023-02-28T12:03:41;9.50;99.90
30097;DHT22;16915;51.466;3.610;2023-02-28T12:06:47;10.60;99.90
30097;DHT22;16915;51.466;3.610;2023-02-28T12:12:38;10.80;99.90
30097;DHT22;16915;51.466;3.610;2023-02-28T12:23:46;9.40;99.90
30097;DHT22;16915;51.466;3.610;2023-02-28T12:26:31;9.50;99.90
30097;DHT22;16915;51.466;3.610;2023-02-28T12:29:27;9.30;99.90
30097;DHT22;16915;51.466;3.610;2023-02-28T12:32:21;9.10;99.90
30097;DHT22;16915;51.466;3.610;2023-02-28T12:34:52;8.90;99.90
30097;DHT22;16915;51.466;3.610;2023-02-28T12:37:29;8.50;99.90
30097;DHT22;16915;51.466;3.610;2023-02-28T12:40:02;8.30;99.90
30097;DHT22;16915;51.466;3.610;2023-02-28T12:42:33;8.90;99.90
30097;DHT22;16915;51.466;3.610;2023-02-28T12:45:07;9.30;99.90
30097;DHT22;16915;51.466;3.610;2023-02-28T12:47:35;9.80;99.90
30097;DHT22;16915;51.466;3.610;2023-02-28T12:50:05;10.60;99.90
30097;DHT22;16915;51.466;3.610;2023-02-28T12:53:00;11.50;99.90
30097;DHT22;16915;51.466;3.610;2023-02-28T13:06:45;13.30;93.90
30097;DHT22;16915;51.466;3.610;2023-02-28T13:09:13;13.20;93.70
30097;DHT22;16915;51.466;3.610;2023-02-28T13:11:51;13.60;92.40
30097;DHT22;16915;51.466;3.610;2023-02-28T13:14:27;14.00;92.30
30097;DHT22;16915;51.466;3.610;2023-02-28T13:17:01;14.30;91.50
30097;DHT22;16915;51.466;3.610;2023-02-28T13:19:33;13.90;90.90
30097;DHT22;16915;51.466;3.610;2023-02-28T13:22:00;13.70;91.20
30097;DHT22;16915;51.466;3.610;2023-02-28T13:24:44;13.60;90.60
30097;DHT22;16915;51.466;3.610;2023-02-28T13:29:51;13.70;89.40
30097;DHT22;16915;51.466;3.610;2023-02-28T13:50:18;13.90;81.90
30097;DHT22;16915;51.466;3.610;2023-02-28T13:58:24;13.30;80.20
30097;DHT22;16915;51.466;3.610;2023-02-28T14:04:03;11.10;82.70
30097;DHT22;16915;51.466;3.610;2023-02-28T14:06:36;9.60;86.90
30097;DHT22;16915;51.466;3.610;2023-02-28T14:11:34;7.90;90.10
30097;DHT22;16915;51.466;3.610;2023-02-28T14:14:01;7.40;93.10
30097;DHT22;16915;51.466;3.610;2023-02-28T14:16:36;7.00;93.50
30097;DHT22;16915;51.466;3.610;2023-02-28T14:21:43;6.40;95.90
30097;DHT22;16915;51.466;3.610;2023-02-28T14:33:14;5.90;96.10
30097;DHT22;16915;51.466;3.610;2023-02-28T14:38:29;5.80;96.50
30097;DHT22;16915;51.466;3.610;2023-02-28T14:40:57;5.90;97.40
30097;DHT22;16915;51.466;3.610;2023-02-28T14:43:27;5.80;96.60
30097;DHT22;16915;51.466;3.610;2023-02-28T14:46:01;5.80;98.00
30097;DHT22;16915;51.466;3.610;2023-02-28T14:48:27;5.80;99.20
30097;DHT22;16915;51.466;3.610;2023-02-28T14:50:57;5.70;99.10
30097;DHT22;16915;51.466;3.610;2023-02-28T14:53:28;5.70;98.70
30097;DHT22;16915;51.466;3.610;2023-02-28T14:55:54;5.70;99.70
30097;DHT22;16915;51.466;3.610;2023-02-28T14:58:32;5.70;98.00
30097;DHT22;16915;51.466;3.610;2023-02-28T15:01:00;5.70;98.80
30097;DHT22;16915;51.466;3.610;2023-02-28T15:03:38;5.70;98.50
30097;DHT22;16915;51.466;3.610;2023-02-28T15:06:16;5.70;99.70
30097;DHT22;16915;51.466;3.610;2023-02-28T15:08:43;5.70;99.30
30097;DHT22;16915;51.466;3.610;2023-02-28T15:11:19;5.70;99.20
30097;DHT22;16915;51.466;3.610;2023-02-28T15:13:53;5.60;99.90
30097;DHT22;16915;51.466;3.610;2023-02-28T15:16:24;5.60;99.40
30097;DHT22;16915;51.466;3.610;2023-02-28T15:19:00;5.60;99.90
30097;DHT22;16915;51.466;3.610;2023-02-28T15:21:33;5.60;98.90
30097;DHT22;16915;51.466;3.610;2023-02-28T15:24:04;5.60;97.60
30097;DHT22;16915;51.466;3.610;2023-02-28T15:26:39;5.50;98.40
30097;DHT22;16915;51.466;3.610;2023-02-28T15:29:10;5.50;96.90
30097;DHT22;16915;51.466;3.610;2023-02-28T15:32:24;5.50;98.60
30097;DHT22;16915;51.466;3.610;2023-02-28T15:34:38;5.50;99.00
30097;DHT22;16915;51.466;3.610;2023-02-28T15:37:45;5.40;98.10
30097;DHT22;16915;51.466;3.610;2023-02-28T15:42:40;5.40;98.90
30097;DHT22;16915;51.466;3.610;2023-02-28T15:45:25;5.40;99.20
30097;DHT22;16915;51.466;3.610;2023-02-28T15:47:51;5.40;98.50
30097;DHT22;16915;51.466;3.610;2023-02-28T15:50:17;5.30;98.40
30097;DHT22;16915;51.466;3.610;2023-02-28T15:52:45;5.30;98.30
30097;DHT22;16915;51.466;3.610;2023-02-28T15:55:22;5.30;98.60
30097;DHT22;16915;51.466;3.610;2023-02-28T15:57:54;5.30;98.90
30097;DHT22;16915;51.466;3.610;2023-02-28T16:00:24;5.30;99.20
30097;DHT22;16915;51.466;3.610;2023-02-28T16:02:50;5.30;98.30
30097;DHT22;16915;51.466;3.610;2023-02-28T16:05:30;5.30;99.40
30097;DHT22;16915;51.466;3.610;2023-02-28T16:08:17;5.20;99.20
30097;DHT22;16915;51.466;3.610;2023-02-28T16:10:43;5.20;98.60
30097;DHT22;16915;51.466;3.610;2023-02-28T16:13:11;5.20;98.90
30097;DHT22;16915;51.466;3.610;2023-02-28T16:15:41;5.10;99.90
30097;DHT22;16915;51.466;3.610;2023-02-28T16:18:10;5.10;98.80
30097;DHT22;16915;51.466;3.610;2023-02-28T16:20:36;5.10;99.30
30097;DHT22;16915;51.466;3.610;2023-02-28T16:23:02;5.00;99.80
30097;DHT22;16915;51.466;3.610;2023-02-28T16:25:39;5.00;99.70
30097;DHT22;16915;51.466;3.610;2023-02-28T16:28:15;5.00;99.80
30097;DHT22;16915;51.466;3.610;2023-02-28T16:30:43;4.90;99.30
30097;DHT22;16915;51.466;3.610;2023-02-28T16:33:09;4.90;99.90
30097;DHT22;16915;51.466;3.610;2023-02-28T16:35:35;4.90;99.90
30097;DHT22;16915;51.466;3.610;2023-02-28T16:38:00;4.80;99.90
30097;DHT22;16915;51.466;3.610;2023-02-28T16:40:26;4.80;99.80
30097;DHT22;16915;51.466;3.610;2023-02-28T16:42:57;4.80;99.90
30097;DHT22;16915;51.466;3.610;2023-02-28T16:45:28;4.70;99.70
30097;DHT22;16915;51.466;3.610;2023-02-28T16:47:54;4.70;99.90
30097;DHT22;16915;51.466;3.610;2023-02-28T16:50:28;4.60;99.90
30097;DHT22;16915;51.466;3.610;2023-02-28T16:52:55;4.60;99.90
30097;DHT22;16915;51.466;3.610;2023-02-28T16:55:22;4.50;99.90
30097;DHT22;16915;51.466;3.610;2023-02-28T16:57:52;4.50;99.90
30097;DHT22;16915;51.466;3.610;2023-02-28T17:00:18;4.40;99.90
30097;DHT22;16915;51.466;3.610;2023-02-28T17:02:44;4.40;99.90
30097;DHT22;16915;51.466;3.610;2023-02-28T17:05:12;4.30;99.90
30097;DHT22;16915;51.466;3.610;2023-02-28T17:07:40;4.20;99.90
30097;DHT22;16915;51.466;3.610;2023-02-28T17:10:15;4.20;99.90
30097;DHT22;16915;51.466;3.610;2023-02-28T17:12:40;4.10;99.90
30097;DHT22;16915;51.466;3.610;2023-02-28T17:15:06;4.10;99.90
30097;DHT22;16915;51.466;3.610;2023-02-28T17:17:33;4.00;99.90
30097;DHT22;16915;51.466;3.610;2023-02-28T17:19:58;3.90;99.90
30097;DHT22;16915;51.466;3.610;2023-02-28T17:22:24;3.80;99.90
30097;DHT22;16915;51.466;3.610;2023-02-28T17:24:51;3.80;99.90
30097;DHT22;16915;51.466;3.610;2023-02-28T17:27:20;3.70;99.90
30097;DHT22;16915;51.466;3.610;2023-02-28T17:29:46;3.60;99.90
30097;DHT22;16915;51.466;3.610;2023-02-28T17:32:12;3.50;99.90
30097;DHT22;16915;51.466;3.610;2023-02-28T17:34:38;3.50;99.90
30097;DHT22;16915;51.466;3.610;2023-02-28T17:37:03;3.40;99.90
30097;DHT22;16915;51.466;3.610;2023-02-28T17:39:29;3.20;99.90
30097;DHT22;16915;51.466;3.610;2023-02-28T17:41:56;3.20;99.90
30097;DHT22;16915;51.466;3.610;2023-02-28T17:44:22;3.20;99.90
30097;DHT22;16915;51.466;3.610;2023-02-28T17:46:49;3.10;99.90
30097;DHT22;16915;51.466;3.610;2023-02-28T17:49:16;3.00;99.90
30097;DHT22;16915;51.466;3.610;2023-02-28T17:51:41;3.00;99.90
30097;DHT22;16915;51.466;3.610;2023-02-28T17:54:07;2.90;99.90
30097;DHT22;16915;51.466;3.610;2023-02-28T17:56:32;2.90;99.90
30097;DHT22;16915;51.466;3.610;2023-02-28T17:58:58;2.90;99.90
30097;DHT22;16915;51.466;3.610;2023-02-28T18:01:24;2.80;99.90
30097;DHT22;16915;51.466;3.610;2023-02-28T18:03:52;2.80;99.90
30097;DHT22;16915;51.466;3.610;2023-02-28T18:06:27;2.70;99.90
30097;DHT22;16915;51.466;3.610;2023-02-28T18:08:53;2.70;99.90
30097;DHT22;16915;51.466;3.610;2023-02-28T18:11:20;2.60;99.90